• Join FlightAware (Why Join?)
  • Login
  • US Flag 
Rudolph Flight #1: Arrived! 
02:46PM EST


 

Airport Tracker/Info


-or-


 

Live Flight TrackerFlight Track Log ✈ UAL647 ✈ 29-Aug-2013 ✈ KIAD - KSFO

Flight Track Log - Related Links

Times and Time Zones

All times are in EDT time to prevent confusion due to time zone crossing. See the UAL647 flight status page for this flight to view local times or setup timezone preferences in your user account.

Time Position Orientation Groundspeed Altitude Reporting Facility
EDT Latitude Longitude Course Direction KTS MPH feet Rate Location/Type
07:08PM 38.9333 -77.5667 288° West 224 258 2,600  Level Potomac TRACON
07:09PM 38.9333 -77.6667 270° West 271 312 5,300 2,820 Climbing Potomac TRACON
07:10PM 38.9378 -77.7586 274° West 287 330 8,100 2,700 Climbing Washington Center
07:11PM 38.9439 -77.8683 274° West 300 345 10,600 2,100 Climbing Washington Center
07:12PM 38.9481 -77.9831 273° West 357 411 12,300 2,280 Climbing Washington Center
07:13PM 38.9162 -78.0979 288° West  Level FlightAware Approximate
07:13PM 38.9556 -78.1194 274° West 400 460 15,200  Level Washington Center
07:14PM 38.9611 -78.2533 273° West 405 466 17,700 2,160 Climbing Washington Center
07:15PM 38.9661 -78.3975 273° West 405 466 19,700 1,980 Climbing Washington Center
07:16PM 38.9711 -78.5392 273° West 405 466 21,700 1,860 Climbing Washington Center
07:17PM 38.9758 -78.6889 272° West 411 473 23,400 1,500 Climbing Washington Center
07:18PM 38.9781 -78.8386 271° West 422 486 24,800 1,320 Climbing Washington Center
07:19PM 38.9831 -78.9592 273° West 422 486 26,200 1,140 Climbing Washington Center
07:20PM 38.9867 -79.1247 272° West 422 486 27,100 960 Climbing Washington Center
07:21PM 38.9903 -79.2772 272° West 428 493 28,200 720 Climbing Washington Center
07:22PM 38.9939 -79.4322 272° West 428 493 28,600 600 Climbing Washington Center
07:23PM 38.9969 -79.5900 271° West 439 505 29,400 660 Climbing Washington Center
07:24PM 39.0014 -79.7692 272° West 447 514 30,000 240 Climbing Washington Center
07:25PM 39.0064 -79.9219 272° West 447 514 30,000  Level Washington Center
07:26PM 39.0039 -80.0403 268° West 438 504 30,000  Level Indianapolis Center
07:27PM 39.0058 -80.2089 271° West 440 506 30,000  Level Indianapolis Center
07:28PM 39.0069 -80.3658 271° West 440 506 30,000  Level Indianapolis Center
07:29PM 39.0097 -80.5239 271° West 443 510 30,000  Level Indianapolis Center
07:30PM 39.0122 -80.6794 271° West 438 504 30,000  Level Indianapolis Center
07:31PM 39.0303 -80.8322 279° West 434 499 30,000  Level Indianapolis Center
07:32PM 39.0781 -80.9697 294° West 423 487 30,000  Level Indianapolis Center
07:33PM 39.1447 -81.1286 298° West 423 487 30,000  Level Indianapolis Center
07:34PM 39.1994 -81.2614 298° West 422 486 30,000  Level Indianapolis Center
07:35PM 39.2536 -81.3942 298° West 423 487 30,000  Level Indianapolis Center
07:36PM 39.3086 -81.5283 298° West 425 489 30,000  Level Indianapolis Center
07:37PM 39.3633 -81.6653 297° West 429 494 30,000  Level Indianapolis Center
07:38PM 39.4186 -81.8011 298° West 429 494 30,000  Level Indianapolis Center
07:39PM 39.4858 -81.9669 298° West 434 499 30,000  Level Indianapolis Center
07:40PM 39.5419 -82.1069 297° West 438 504 30,000 -420 Level Indianapolis Center
07:41PM 39.6011 -82.2581 297° West 439 505 29,200 -900 Descending Indianapolis Center
07:42PM 39.6561 -82.3967 297° West 436 502 28,200 -600 Descending Indianapolis Center
07:43PM 39.7111 -82.5361 297° West 435 501 28,000 -120 Descending Indianapolis Center
07:44PM 39.7656 -82.6758 297° West 434 499 28,000  Level Indianapolis Center
07:45PM 39.8203 -82.8150 297° West 435 501 28,000  Level Indianapolis Center
07:46PM 39.8739 -82.9542 297° West 434 499 28,000  Level Indianapolis Center
07:47PM 39.9383 -83.1194 297° West 431 496 28,000  Level Indianapolis Center
07:48PM 39.9922 -83.2586 297° West 435 501 28,000  Level Indianapolis Center
07:49PM 40.0453 -83.3978 297° West 437 503 28,000  Level Indianapolis Center
07:50PM 40.0994 -83.5378 297° West 438 504 28,000  Level Indianapolis Center
07:52PM 40.1625 -83.7067 296° West 437 503 28,000  Level Indianapolis Center
07:53PM 40.2156 -83.8478 296° West 435 501 28,000  Level Indianapolis Center
07:54PM 40.2692 -83.9894 296° West 436 502 28,000  Level Indianapolis Center
07:55PM 40.3031 -84.1419 286° West 436 502 28,000  Level Indianapolis Center
07:56PM 40.3236 -84.3033 280° West 445 512 28,000  Level Indianapolis Center
07:57PM 40.3450 -84.4611 280° West 444 511 28,000  Level Indianapolis Center
07:58PM 40.3700 -84.6525 280° West 445 512 28,000  Level Indianapolis Center
07:59PM 40.3911 -84.8142 280° West 449 517 28,000  Level Indianapolis Center
08:00PM 40.4097 -84.9722 279° West 450 518 28,000  Level Indianapolis Center
08:01PM 40.4300 -85.1311 280° West 446 513 28,000  Level Indianapolis Center
08:02PM 40.4575 -85.3517 279° West 445 512 28,000  Level Chicago Center
08:03PM 40.4778 -85.5103 280° West 445 512 28,000 180 Level Chicago Center
08:04PM 40.4967 -85.6686 279° West 443 510 28,400 540 Climbing Chicago Center
08:05PM 40.5158 -85.8294 279° West 448 516 29,200 720 Climbing Chicago Center
08:06PM 40.5356 -85.9911 279° West 450 518 30,000 360 Climbing Chicago Center
08:07PM 40.5586 -86.1825 279° West 448 516 30,000  Level Chicago Center
08:08PM 40.5786 -86.3400 280° West 444 511 30,000  Level Chicago Center
08:09PM 40.5967 -86.4997 279° West 445 512 30,000  Level Chicago Center
08:10PM 40.6133 -86.6619 278° West 448 516 30,000  Level Chicago Center
08:11PM 40.6347 -86.8528 278° West 445 512 30,000  Level Chicago Center
08:12PM 40.6525 -87.0122 278° West 443 510 30,000  Level Chicago Center
08:13PM 40.6692 -87.1819 277° West 444 511 30,000  Level Chicago Center
08:15PM 40.6858 -87.3433 278° West 445 512 30,000  Level Chicago Center
08:16PM 40.7039 -87.5036 279° West 445 512 30,000  Level Chicago Center
08:17PM 40.7203 -87.6633 278° West 442 509 30,000  Level Chicago Center
08:18PM 40.7381 -87.8247 278° West 445 512 30,000  Level Chicago Center
08:19PM 40.7561 -88.0183 277° West 445 512 30,000  Level Chicago Center
08:20PM 40.7733 -88.1775 278° West 440 506 30,000  Level Chicago Center
08:21PM 40.7894 -88.3400 278° West 445 512 30,000  Level Chicago Center
08:22PM 40.8044 -88.5019 277° West 446 513 30,000  Level Chicago Center
08:24PM 40.8356 -88.8250 277° West 445 512 30,000  Level Chicago Center
08:25PM 40.8517 -88.9928 277° West 448 516 30,000  Level Chicago Center
08:26PM 40.8689 -89.1864 277° West 445 512 30,000  Level Chicago Center
08:27PM 40.8836 -89.3481 277° West 445 512 30,000  Level Chicago Center
08:28PM 40.8975 -89.5094 277° West 444 511 30,000  Level Chicago Center
08:29PM 40.9119 -89.6675 277° West 447 514 30,000  Level Chicago Center
08:30PM 40.9300 -89.8619 277° West 446 513 30,000  Level Chicago Center
08:31PM 40.9386 -90.0228 274° West 443 510 30,000  Level Chicago Center
08:32PM 40.9508 -90.1842 276° West 442 509 30,000  Level Chicago Center
08:33PM 40.9672 -90.3478 278° West 452 520 30,000  Level Chicago Center
08:34PM 40.9794 -90.5097 276° West 448 516 30,000  Level Chicago Center
08:35PM 40.9908 -90.6722 275° West 445 512 30,000  Level Chicago Center
08:36PM 41.0050 -90.8675 276° West 445 512 30,000  Level Chicago Center
08:37PM 41.0178 -91.0292 276° West 443 510 30,000  Level Chicago Center
08:38PM 41.0297 -91.1917 276° West 444 511 30,000  Level Chicago Center
08:39PM 41.0408 -91.3539 275° West 443 510 30,000  Level Chicago Center
08:40PM 41.0522 -91.5153 275° West 442 509 30,000  Level Chicago Center
08:41PM 41.0642 -91.6803 276° West 444 511 30,000  Level Chicago Center
08:42PM 41.0769 -91.8722 275° West 442 509 30,000  Level Chicago Center
08:43PM 41.1142 -92.0281 288° West 450 518 30,000  Level Chicago Center
08:45PM 41.1925 -92.1542 310° West 448 516 30,000  Level Chicago Center
08:46PM 41.2814 -92.2797 313° West 453 521 30,000  Level Chicago Center
08:47PM 41.3297 -92.4186 295° West 445 512 30,000  Level Chicago Center
08:48PM 41.3436 -92.6147 275° West 443 510 30,000  Level Chicago Center
08:49PM 41.3522 -92.7758 274° West 443 510 30,000  Level Chicago Center
08:50PM 41.3606 -92.9369 274° West 443 510 30,000  Level Chicago Center
08:51PM 41.3675 -93.0997 273° West 445 512 30,000  Level Chicago Center
08:52PM 41.3772 -93.2953 274° West 447 514 30,000  Level Chicago Center
08:53PM 41.3847 -93.4589 274° West 449 517 30,000  Level Chicago Center
08:54PM 41.3917 -93.6228 273° West 450 518 30,000  Level Chicago Center
08:55PM 41.3986 -93.7853 273° West 446 513 30,000  Level Chicago Center
08:56PM 41.4058 -93.9519 273° West 454 522 30,000  Level Chicago Center
08:57PM 41.4128 -94.1483 273° West 450 518 30,000  Level Chicago Center
08:58PM 41.4194 -94.3136 273° West 451 519 30,000  Level Chicago Center
08:59PM 41.4253 -94.4800 273° West 453 521 30,000  Level Chicago Center
09:00PM 41.4353 -94.7350 273° West 457 526 30,000  Level Minneapolis Center
09:02PM 41.4408 -94.9042 273° West 457 526 30,000  Level Minneapolis Center
09:03PM 41.4464 -95.0711 273° West 451 519 30,000  Level Minneapolis Center
09:04PM 41.4517 -95.2408 272° West 456 525 30,000  Level Minneapolis Center
09:05PM 41.4564 -95.4431 272° West 455 524 30,000  Level Minneapolis Center
09:06PM 41.4622 -95.6556 272° West 459 528 30,000  Level Minneapolis Center
09:07PM 41.4658 -95.8292 272° West 466 536 30,000  Level Minneapolis Center
09:08PM 41.4706 -96.0008 272° West 466 536 30,000  Level Minneapolis Center
09:09PM 41.4744 -96.1739 272° West 466 536 30,000  Level Minneapolis Center
09:10PM 41.4792 -96.3586 272° West 466 536 30,000  Level Minneapolis Center
09:11PM 41.4811 -96.5292 271° West 463 533 30,000  Level Minneapolis Center
09:12PM 41.4839 -96.6986 271° West 460 529 30,000  Level Minneapolis Center
09:13PM 41.4861 -96.8683 271° West 459 528 30,000  Level Minneapolis Center
09:14PM 41.4900 -97.0706 272° West 457 526 30,000  Level Minneapolis Center
09:15PM 41.4914 -97.2392 271° West 456 525 30,000  Level Minneapolis Center
09:16PM 41.4939 -97.4083 271° West 456 525 30,000  Level Minneapolis Center
09:17PM 41.4961 -97.5772 271° West 457 526 30,000  Level Minneapolis Center
09:18PM 41.4964 -97.7450 270° West 455 524 30,000  Level Minneapolis Center
09:19PM 41.4989 -97.9136 271° West 455 524 30,000  Level Minneapolis Center
09:20PM 41.5003 -98.1161 271° West 455 524 30,000  Level Minneapolis Center
09:21PM 41.4997 -98.2728 270° West 457 526 30,000  Level Minneapolis Center
09:22PM 41.5006 -98.4406 270° West 456 525 30,000  Level Minneapolis Center
09:23PM 41.4992 -98.5878 269° West 454 522 30,000  Level Minneapolis Center
09:24PM 41.4989 -98.7900 270° West 454 522 30,000  Level Minneapolis Center
09:25PM 41.5003 -98.9056 271° West 452 520 30,000  Level Denver Center
09:26PM 41.5000 -99.0711 270° West 451 519 30,000  Level Denver Center
09:27PM 41.4989 -99.2358 270° West 449 517 30,000  Level Denver Center
09:28PM 41.4978 -99.4339 270° West 448 516 30,000  Level Denver Center
09:29PM 41.4961 -99.5989 269° West 447 514 30,000  Level Denver Center
09:30PM 41.4947 -99.7772 269° West 448 516 30,000  Level Denver Center
09:31PM 41.4928 -99.9358 269° West 448 516 30,000  Level Denver Center
09:32PM 41.4911 -100.1211 269° West 449 517 30,000  Level Denver Center
09:33PM 41.4881 -100.2814 269° West 452 520 30,000  Level Denver Center
09:34PM 41.4858 -100.4403 269° West 451 519 30,000  Level Denver Center
09:35PM 41.4825 -100.6258 269° West 451 519 30,000  Level Denver Center
09:36PM 41.4797 -100.7831 269° West 447 514 30,000  Level Denver Center
09:38PM 41.4761 -100.9678 269° West 448 516 30,000  Level Denver Center
09:39PM 41.4736 -101.1261 269° West 449 517 30,000  Level Denver Center
09:40PM 41.4683 -101.3103 268° West 448 516 30,000  Level Denver Center
09:41PM 41.4647 -101.4664 268° West 444 511 30,000  Level Denver Center
09:42PM 41.4600 -101.6497 268° West 445 512 30,000  Level Denver Center
09:43PM 41.4558 -101.8061 268° West 444 511 30,000  Level Denver Center
09:44PM 41.4506 -101.9903 268° West 445 512 30,000  Level Denver Center
09:45PM 41.4450 -102.1475 267° West 445 512 30,000  Level Denver Center
09:46PM 41.4400 -102.3306 268° West 444 511 30,000  Level Denver Center
09:47PM 41.4347 -102.4889 268° West 446 513 30,000  Level Denver Center
09:48PM 41.4275 -102.6614 267° West 447 514 30,000  Level Denver Center
09:49PM 41.4214 -102.8444 268° West 444 511 30,000  Level Denver Center
09:50PM 41.4161 -103.0003 267° West 441 507 30,000  Level Denver Center
09:51PM 41.4092 -103.1569 267° West 444 511 30,000  Level Denver Center
09:52PM 41.4028 -103.3367 267° West 437 503 30,000  Level Denver Center
09:53PM 41.3947 -103.4933 266° West 441 507 30,000  Level Denver Center
09:54PM 41.3875 -103.6733 267° West 436 502 30,000  Level Denver Center
09:55PM 41.3817 -103.8292 267° West 439 505 30,000  Level Denver Center
09:56PM 41.3722 -104.0139 266° West 446 513 30,000  Level Denver Center
09:57PM 41.3650 -104.1703 267° West 443 510 30,000  Level Denver Center
09:58PM 41.3553 -104.3506 266° West 438 504 30,000  Level Denver Center
09:59PM 41.3489 -104.5069 267° West 439 505 30,000  Level Denver Center
10:00PM 41.3650 -104.6611 278° West 448 516 30,000  Level Denver Center
10:01PM 41.4100 -104.8339 289° West 443 510 30,000  Level Denver Center
10:02PM 41.4481 -104.9800 289° West 438 504 30,000  Level Denver Center
10:03PM 41.4839 -105.1567 285° West 441 507 30,000  Level Denver Center
10:04PM 41.5078 -105.3089 282° West 439 505 30,000  Level Denver Center
10:05PM 41.5197 -105.4892 275° West 435 501 30,000  Level Denver Center
10:06PM 41.5081 -105.6442 264° West 438 504 30,000  Level Denver Center
10:07PM 41.4950 -105.8244 265° West 437 503 30,000  Level Denver Center
10:08PM 41.4842 -105.9775 265° West 436 502 30,000  Level Denver Center
10:10PM 41.4719 -106.1325 264° West 438 504 30,000  Level Denver Center
10:11PM 41.4569 -106.3092 264° West 431 496 30,000  Level Denver Center
10:12PM 41.4444 -106.4614 264° West 431 496 30,000  Level Denver Center
10:13PM 41.4283 -106.6289 263° West 432 497 30,000  Level Denver Center
10:14PM 41.3769 -106.7950 248° West 436 502 30,000  Level Denver Center
10:15PM 41.3300 -106.9361 246° West 435 501 30,000  Level Denver Center
10:16PM 41.2764 -107.1008 247° West 435 501 30,000  Level Denver Center
10:17PM 41.2297 -107.2408 246° West 433 498 30,000  Level Denver Center
10:18PM 41.1833 -107.3808 246° West 432 497 30,000  Level Denver Center
10:19PM 41.1283 -107.5436 246° West 431 496 30,000  Level Denver Center
10:20PM 41.0811 -107.6842 246° West 435 501 30,000  Level Denver Center
10:21PM 41.0261 -107.8458 246° West 432 497 30,000  Level Denver Center
10:22PM 40.9781 -107.9861 246° West 434 499 30,000  Level Denver Center
10:23PM 40.9214 -108.1492 245° Southwest 435 501 30,000  Level Denver Center
10:24PM 40.8731 -108.2906 246° West 439 505 30,000  Level Denver Center
10:25PM 40.8250 -108.4297 246° West 436 502 30,000  Level Denver Center
10:26PM 40.7678 -108.5933 245° Southwest 437 503 30,000  Level Denver Center
10:27PM 40.7172 -108.7397 246° West 437 503 30,000  Level Denver Center
10:28PM 40.6678 -108.8781 245° Southwest 436 502 30,000  Level Denver Center
10:29PM 40.6111 -109.0394 245° Southwest 435 501 30,000  Level Denver Center
10:30PM 40.5619 -109.1781 245° Southwest 437 503 30,000  Level Denver Center
10:31PM 40.5044 -109.3372 245° Southwest 433 498 30,000  Level Denver Center
10:32PM 40.4553 -109.4744 245° Southwest 435 501 30,000  Level Denver Center
10:33PM 40.3978 -109.6336 245° Southwest 434 499 30,000  Level Denver Center
10:34PM 40.3472 -109.7706 244° Southwest 437 503 30,000  Level Denver Center
10:35PM 40.2894 -109.9289 244° Southwest 433 498 30,000  Level Denver Center
10:36PM 40.2400 -110.0647 245° Southwest 433 498 30,000  Level Denver Center
10:38PM 40.1731 -110.2456 244° Southwest 433 498 30,000  Level Salt Lake Center
10:39PM 40.1225 -110.3803 244° Southwest 433 498 30,000  Level Salt Lake Center
10:40PM 40.0647 -110.5392 245° Southwest 433 498 30,000  Level Salt Lake Center
10:41PM 40.0133 -110.6733 243° Southwest 433 498 30,000  Level Salt Lake Center
10:43PM 39.9028 -110.9678 244° Southwest 436 502 30,000  Level Salt Lake Center
10:44PM 39.8422 -111.1247 243° Southwest 435 501 30,000  Level Salt Lake Center
10:45PM 39.7914 -111.2597 244° Southwest 434 499 30,000  Level Salt Lake Center
10:46PM 39.7400 -111.3878 242° Southwest 438 504 30,000  Level Salt Lake Center
10:47PM 39.6753 -111.5575 244° Southwest 437 503 30,000  Level Salt Lake Center
10:48PM 39.6211 -111.6978 243° Southwest 436 502 30,000  Level Salt Lake Center
10:49PM 39.5669 -111.8369 243° Southwest 431 496 30,000  Level Salt Lake Center
10:50PM 39.5119 -111.9772 243° Southwest 434 499 30,000  Level Salt Lake Center
10:51PM 39.4572 -112.1153 243° Southwest 431 496 30,000  Level Salt Lake Center
10:52PM 39.4022 -112.2544 243° Southwest 434 499 30,000  Level Salt Lake Center
10:53PM 39.3486 -112.3958 244° Southwest 438 504 30,000  Level Salt Lake Center
10:54PM 39.2894 -112.5617 245° Southwest 431 496 30,000  Level Salt Lake Center
10:55PM 39.2564 -112.7067 254° West 427 491 30,000  Level Salt Lake Center
10:56PM 39.2239 -112.8586 255° West 434 499 30,000  Level Salt Lake Center
10:57PM 39.1906 -113.0103 254° West 441 507 30,000  Level Salt Lake Center
10:58PM 39.1572 -113.1575 254° West 435 501 30,000  Level Salt Lake Center
10:59PM 39.1289 -113.3081 256° West 436 502 30,000  Level Salt Lake Center
11:00PM 39.1297 -113.4647 270° West 442 509 30,000  Level Salt Lake Center
11:01PM 39.1081 -113.6475 261° West 436 502 30,000  Level Salt Lake Center
11:02PM 39.0722 -113.7950 253° West 434 499 30,000  Level Salt Lake Center
11:03PM 39.0353 -113.9428 252° West 435 501 30,000  Level Salt Lake Center
11:04PM 38.9992 -114.0883 252° West 431 496 30,000  Level Salt Lake Center
11:05PM 38.9619 -114.2325 252° West 428 493 30,000  Level Salt Lake Center
11:06PM 38.9258 -114.3778 252° West 430 495 30,000  Level Salt Lake Center
11:07PM 38.8886 -114.5217 252° West 428 493 30,000  Level Salt Lake Center
11:08PM 38.8450 -114.6953 252° West 427 491 30,000  Level Salt Lake Center
11:09PM 38.8081 -114.8397 252° West 428 493 30,000  Level Salt Lake Center
11:10PM 38.7697 -114.9853 251° West 430 495 30,000  Level Salt Lake Center
11:11PM 38.7303 -115.1303 251° West 432 497 30,000  Level Salt Lake Center
11:13PM 38.6928 -115.2736 252° West 430 495 30,000  Level Salt Lake Center
11:14PM 38.6569 -115.4100 251° West 426 490 30,000  Level Salt Lake Center
11:15PM 38.6103 -115.5836 251° West 429 494 30,000  Level Salt Lake Center
11:16PM 38.5733 -115.7275 252° West 428 493 30,000  Level Salt Lake Center
11:17PM 38.5344 -115.8697 251° West 425 489 30,000  Level Salt Lake Center
11:18PM 38.4964 -116.0128 251° West 425 489 30,000  Level Salt Lake Center
11:19PM 38.4572 -116.1547 251° West 426 490 30,000  Level Salt Lake Center
11:20PM 38.4175 -116.2975 250° West 427 491 30,000  Level Salt Lake Center
11:21PM 38.3792 -116.4394 251° West 423 487 30,000  Level Salt Lake Center
11:22PM 38.3400 -116.5811 251° West 424 488 30,000  Level Salt Lake Center
11:23PM 38.3014 -116.7183 250° West 417 480 30,000  Level Salt Lake Center
11:24PM 38.2608 -116.8653 251° West 371 427 30,000  Level Salt Lake Center
11:25PM 38.2269 -116.9861 250° West 363 418 30,000  Level Salt Lake Center
11:26PM 38.1936 -117.1067 251° West 363 418 30,000  Level Salt Lake Center
11:27PM 38.1592 -117.2308 251° West 366 421 30,000  Level Salt Lake Center
11:28PM 38.1033 -117.3575 241° Southwest 382 440 30,000  Level Salt Lake Center
11:29PM 38.0103 -117.4311 212° Southwest 397 457 30,000  Level Salt Lake Center
11:30PM 37.9425 -117.5439 233° Southwest 413 475 30,000  Level Salt Lake Center
11:31PM 37.9303 -117.6886 264° West 411 473 30,000  Level Salt Lake Center
11:32PM 37.9183 -117.8350 264° West 415 478 30,000  Level Salt Lake Center
11:33PM 37.9069 -117.9783 264° West 411 473 30,000  Level Salt Lake Center
11:34PM 37.8956 -118.1192 264° West 403 464 30,000  Level Salt Lake Center
11:35PM 37.8833 -118.2611 264° West 405 466 30,000  Level Salt Lake Center
11:36PM 37.8722 -118.4028 264° West 405 466 30,000  Level Salt Lake Center
11:37PM 37.8544 -118.5994 264° West 401 461 30,000  Level Oakland Center
11:38PM 37.8417 -118.7406 264° West 402 463 30,000  Level Oakland Center
11:39PM 37.8283 -118.8944 264° West 398 458 30,000  Level Oakland Center
11:41PM 37.8164 -119.0342 264° West 399 459 30,000  Level Oakland Center
11:42PM 37.8044 -119.1742 264° West 401 461 30,000  Level Oakland Center
11:43PM 37.7908 -119.3139 263° West 400 460 30,000  Level Oakland Center
11:44PM 37.7778 -119.4517 263° West 397 457 30,000  Level Oakland Center
11:45PM 37.7639 -119.5922 263° West 400 460 30,000  Level Oakland Center
11:46PM 37.7503 -119.7344 263° West 405 466 30,000  Level Oakland Center
11:47PM 37.7344 -119.9000 263° West 399 459 30,000  Level Oakland Center
11:48PM 37.7211 -120.0372 263° West 394 453 30,000 -300 Level Oakland Center
11:49PM 37.7092 -120.1653 263° West 377 434 29,500 -1,200 Descending Oakland Center
11:50PM 37.6964 -120.2983 263° West 376 433 27,600 -1,860 Descending Oakland Center
11:51PM 37.6822 -120.4314 262° West 381 438 25,800 -1,320 Descending Oakland Center
11:52PM 37.6681 -120.5606 262° West 377 434 25,000 -660 Descending Oakland Center
11:53PM 37.6558 -120.6894 263° West 372 428 24,500 -540 Descending Oakland Center
11:54PM 37.6419 -120.8178 262° West 370 426 24,000 -840 Descending Oakland Center
11:55PM 37.6281 -120.9433 262° West 363 418 22,800 -1,440 Descending Oakland Center
11:56PM 37.6000 -121.0833 256° West 350 403 21,100 -1,800 Descending Northern Cal TRACON
11:57PM 37.5167 -121.1333 205° Southwest 326 375 19,200 -2,040 Descending Northern Cal TRACON
11:58PM 37.4500 -121.1833 211° Southwest 315 362 17,100 -2,040 Descending Northern Cal TRACON
11:59PM 37.4333 -121.2833 258° West 322 371 15,200 -1,740 Descending Northern Cal TRACON
12:00AM 37.4667 -121.3833 293° West 317 365 13,700 -1,380 Descending Northern Cal TRACON
12:01AM 37.5000 -121.4833 293° West 295 339 12,500 -1,200 Descending Northern Cal TRACON
12:02AM 37.5333 -121.5667 297° West 261 300 11,300 -900 Descending Northern Cal TRACON
12:03AM 37.5667 -121.6500 297° West 253 291 10,800 -660 Descending Northern Cal TRACON
12:04AM 37.5500 -121.7167 253° West 241 277 10,000 -900 Descending Northern Cal TRACON
12:05AM 37.4833 -121.7333 191° South 210 242 9,000 -1,020 Descending Northern Cal TRACON
12:06AM 37.4833 -121.8167 270° West 230 265 8,000 -540 Descending Northern Cal TRACON
12:07AM 37.4833 -121.8833 270° West 207 238 8,000 -540 Level Northern Cal TRACON
12:08AM 37.5000 -121.9500 288° West 180 207 7,000 -1,200 Descending Northern Cal TRACON
12:09AM 37.5000 -122.0000 270° West 181 208 5,800 -1,380 Descending Northern Cal TRACON
12:10AM 37.5167 -122.0667 288° West 174 200 4,300 -1,200 Descending Northern Cal TRACON
12:11AM 37.5333 -122.1167 293° West 163 188 3,300 -900 Descending Northern Cal TRACON
12:12AM 37.5500 -122.1667 293° West 160 184 2,500 -780 Descending Northern Cal TRACON
12:13AM 37.5667 -122.2167 293° West 139 160 1,900 -720 Descending Northern Cal TRACON
12:14AM 37.5833 -122.2500 302° West 118 136 1,200 -360 Descending Northern Cal TRACON
12:15AM 37.5833 -122.2833 270° West 124 143 1,200 -360 Level Northern Cal TRACON
12:16AM 37.6000 -122.3333 293° West 123 142 500 -720 Descending Northern Cal TRACON